sensor_id;sensor_type;location;lat;lon;timestamp;temperature;humidity
11136;DHT22;5622;50.840;4.948;2023-04-01T00:01:06;9.90;99.90
11136;DHT22;5622;50.840;4.948;2023-04-01T00:03:33;9.90;99.90
11136;DHT22;5622;50.840;4.948;2023-04-01T00:06:01;9.90;99.90
11136;DHT22;5622;50.840;4.948;2023-04-01T00:08:29;9.90;99.90
11136;DHT22;5622;50.840;4.948;2023-04-01T00:10:56;9.90;99.90
11136;DHT22;5622;50.840;4.948;2023-04-01T00:13:26;9.90;99.90
11136;DHT22;5622;50.840;4.948;2023-04-01T00:15:53;9.90;99.90
11136;DHT22;5622;50.840;4.948;2023-04-01T00:18:21;9.90;99.90
11136;DHT22;5622;50.840;4.948;2023-04-01T00:20:50;9.90;99.90
11136;DHT22;5622;50.840;4.948;2023-04-01T00:23:19;9.80;99.90
11136;DHT22;5622;50.840;4.948;2023-04-01T00:25:46;9.90;99.90
11136;DHT22;5622;50.840;4.948;2023-04-01T00:28:15;9.90;99.90
11136;DHT22;5622;50.840;4.948;2023-04-01T00:30:43;9.90;99.90
11136;DHT22;5622;50.840;4.948;2023-04-01T00:33:11;9.80;99.90
11136;DHT22;5622;50.840;4.948;2023-04-01T00:35:39;9.90;99.90
11136;DHT22;5622;50.840;4.948;2023-04-01T00:38:06;9.90;99.90
11136;DHT22;5622;50.840;4.948;2023-04-01T00:40:35;9.80;99.90
11136;DHT22;5622;50.840;4.948;2023-04-01T00:43:03;9.90;99.90
11136;DHT22;5622;50.840;4.948;2023-04-01T00:45:33;9.90;99.90
11136;DHT22;5622;50.840;4.948;2023-04-01T00:48:05;9.90;99.90
11136;DHT22;5622;50.840;4.948;2023-04-01T00:50:34;9.90;99.90
11136;DHT22;5622;50.840;4.948;2023-04-01T00:53:02;9.90;99.90
11136;DHT22;5622;50.840;4.948;2023-04-01T00:55:33;9.80;99.90
11136;DHT22;5622;50.840;4.948;2023-04-01T00:58:05;9.90;99.90
11136;DHT22;5622;50.840;4.948;2023-04-01T01:00:34;9.90;99.90
11136;DHT22;5622;50.840;4.948;2023-04-01T01:03:06;9.90;99.90
11136;DHT22;5622;50.840;4.948;2023-04-01T01:05:44;9.90;99.90
11136;DHT22;5622;50.840;4.948;2023-04-01T06:32:10;9.60;99.90
11136;DHT22;5622;50.840;4.948;2023-04-01T07:32:05;9.70;99.90
11136;DHT22;5622;50.840;4.948;2023-04-01T10:11:11;10.40;99.90
11136;DHT22;5622;50.840;4.948;2023-04-01T19:26:56;9.60;99.90
11136;DHT22;5622;50.840;4.948;2023-04-01T19:29:40;9.60;99.90
11136;DHT22;5622;50.840;4.948;2023-04-01T19:32:23;9.60;99.90
11136;DHT22;5622;50.840;4.948;2023-04-01T19:34:57;9.60;99.90
11136;DHT22;5622;50.840;4.948;2023-04-01T19:37:36;9.60;99.90
11136;DHT22;5622;50.840;4.948;2023-04-01T19:43:06;9.50;99.90
11136;DHT22;5622;50.840;4.948;2023-04-01T19:45:43;9.50;99.90
11136;DHT22;5622;50.840;4.948;2023-04-01T19:48:24;9.50;99.90
11136;DHT22;5622;50.840;4.948;2023-04-01T19:51:04;9.50;99.90
11136;DHT22;5622;50.840;4.948;2023-04-01T19:53:47;9.50;99.90
11136;DHT22;5622;50.840;4.948;2023-04-01T19:56:21;9.50;99.90
11136;DHT22;5622;50.840;4.948;2023-04-01T19:58:55;9.50;99.90
11136;DHT22;5622;50.840;4.948;2023-04-01T20:01:41;9.50;99.90
11136;DHT22;5622;50.840;4.948;2023-04-01T20:04:22;9.50;99.90
11136;DHT22;5622;50.840;4.948;2023-04-01T20:06:56;9.50;99.90
11136;DHT22;5622;50.840;4.948;2023-04-01T20:09:46;9.40;99.90
11136;DHT22;5622;50.840;4.948;2023-04-01T20:15:21;9.40;99.90
11136;DHT22;5622;50.840;4.948;2023-04-01T20:17:52;9.40;99.90
11136;DHT22;5622;50.840;4.948;2023-04-01T20:20:21;9.40;99.90
11136;DHT22;5622;50.840;4.948;2023-04-01T20:23:02;9.40;99.90
11136;DHT22;5622;50.840;4.948;2023-04-01T20:25:39;9.40;99.90
11136;DHT22;5622;50.840;4.948;2023-04-01T20:28:21;9.40;99.90
11136;DHT22;5622;50.840;4.948;2023-04-01T20:31:01;9.30;99.90
11136;DHT22;5622;50.840;4.948;2023-04-01T20:36:42;9.40;99.90
11136;DHT22;5622;50.840;4.948;2023-04-01T20:39:21;9.30;99.90
11136;DHT22;5622;50.840;4.948;2023-04-01T20:42:02;9.30;99.90
11136;DHT22;5622;50.840;4.948;2023-04-01T20:44:42;9.40;99.90
11136;DHT22;5622;50.840;4.948;2023-04-01T20:47:21;9.40;99.90
11136;DHT22;5622;50.840;4.948;2023-04-01T20:49:55;9.30;99.90
11136;DHT22;5622;50.840;4.948;2023-04-01T20:52:32;9.30;99.90
11136;DHT22;5622;50.840;4.948;2023-04-01T20:55:17;9.40;99.90
11136;DHT22;5622;50.840;4.948;2023-04-01T20:57:53;9.30;99.90
11136;DHT22;5622;50.840;4.948;2023-04-01T21:00:33;9.40;99.90
11136;DHT22;5622;50.840;4.948;2023-04-01T21:03:14;9.40;99.90
11136;DHT22;5622;50.840;4.948;2023-04-01T21:08:58;9.50;99.90
11136;DHT22;5622;50.840;4.948;2023-04-01T21:11:35;9.50;99.90
11136;DHT22;5622;50.840;4.948;2023-04-01T21:17:11;9.50;99.90
11136;DHT22;5622;50.840;4.948;2023-04-01T21:20:00;9.50;99.90
11136;DHT22;5622;50.840;4.948;2023-04-01T21:22:44;9.50;99.90
11136;DHT22;5622;50.840;4.948;2023-04-01T21:25:35;9.60;99.90
11136;DHT22;5622;50.840;4.948;2023-04-01T21:28:23;9.60;99.90
11136;DHT22;5622;50.840;4.948;2023-04-01T21:31:04;9.60;99.90
11136;DHT22;5622;50.840;4.948;2023-04-01T21:33:58;9.40;99.90
11136;DHT22;5622;50.840;4.948;2023-04-01T21:36:56;9.70;99.90
11136;DHT22;5622;50.840;4.948;2023-04-01T21:39:49;9.70;99.90
11136;DHT22;5622;50.840;4.948;2023-04-01T21:42:29;9.70;99.90
11136;DHT22;5622;50.840;4.948;2023-04-01T21:45:35;9.70;99.90
11136;DHT22;5622;50.840;4.948;2023-04-01T21:48:28;9.70;99.90
11136;DHT22;5622;50.840;4.948;2023-04-01T21:51:28;9.70;99.90
11136;DHT22;5622;50.840;4.948;2023-04-01T21:54:43;9.80;99.90
11136;DHT22;5622;50.840;4.948;2023-04-01T22:00:15;9.80;99.90
11136;DHT22;5622;50.840;4.948;2023-04-01T22:06:00;9.80;99.90
11136;DHT22;5622;50.840;4.948;2023-04-01T22:08:39;9.80;99.90
11136;DHT22;5622;50.840;4.948;2023-04-01T22:11:18;9.80;99.90
11136;DHT22;5622;50.840;4.948;2023-04-01T22:13:50;9.80;99.90
11136;DHT22;5622;50.840;4.948;2023-04-01T22:16:23;9.90;99.90
11136;DHT22;5622;50.840;4.948;2023-04-01T22:19:00;9.80;99.90
11136;DHT22;5622;50.840;4.948;2023-04-01T22:21:35;9.90;99.90
11136;DHT22;5622;50.840;4.948;2023-04-01T22:24:13;9.80;99.90
11136;DHT22;5622;50.840;4.948;2023-04-01T22:26:51;9.80;99.90
11136;DHT22;5622;50.840;4.948;2023-04-01T22:29:29;9.80;99.90
11136;DHT22;5622;50.840;4.948;2023-04-01T22:32:02;9.70;99.90
11136;DHT22;5622;50.840;4.948;2023-04-01T22:34:37;9.70;99.90
11136;DHT22;5622;50.840;4.948;2023-04-01T22:37:14;9.40;99.90
11136;DHT22;5622;50.840;4.948;2023-04-01T22:40:02;9.80;99.90
11136;DHT22;5622;50.840;4.948;2023-04-01T22:42:42;9.70;99.90
11136;DHT22;5622;50.840;4.948;2023-04-01T22:45:33;9.70;99.90
11136;DHT22;5622;50.840;4.948;2023-04-01T22:48:08;9.70;99.90
11136;DHT22;5622;50.840;4.948;2023-04-01T22:50:40;9.60;99.90
11136;DHT22;5622;50.840;4.948;2023-04-01T22:53:19;9.70;99.90
11136;DHT22;5622;50.840;4.948;2023-04-01T22:55:50;9.60;99.90
11136;DHT22;5622;50.840;4.948;2023-04-01T22:58:24;9.60;99.90
11136;DHT22;5622;50.840;4.948;2023-04-01T23:00:55;9.60;99.90
11136;DHT22;5622;50.840;4.948;2023-04-01T23:03:27;9.60;99.90
11136;DHT22;5622;50.840;4.948;2023-04-01T23:05:57;9.60;99.90
11136;DHT22;5622;50.840;4.948;2023-04-01T23:08:58;9.60;99.90
11136;DHT22;5622;50.840;4.948;2023-04-01T23:11:29;9.50;99.90
11136;DHT22;5622;50.840;4.948;2023-04-01T23:17:09;9.50;99.90
11136;DHT22;5622;50.840;4.948;2023-04-01T23:19:41;9.40;99.90
11136;DHT22;5622;50.840;4.948;2023-04-01T23:22:18;9.40;99.90
11136;DHT22;5622;50.840;4.948;2023-04-01T23:24:52;9.40;99.90
11136;DHT22;5622;50.840;4.948;2023-04-01T23:27:23;9.30;99.90
11136;DHT22;5622;50.840;4.948;2023-04-01T23:29:53;9.30;99.90
11136;DHT22;5622;50.840;4.948;2023-04-01T23:32:23;9.30;99.90
11136;DHT22;5622;50.840;4.948;2023-04-01T23:34:53;9.30;99.90
11136;DHT22;5622;50.840;4.948;2023-04-01T23:37:21;9.20;99.90
11136;DHT22;5622;50.840;4.948;2023-04-01T23:39:50;9.20;99.90
11136;DHT22;5622;50.840;4.948;2023-04-01T23:42:19;9.20;99.90
11136;DHT22;5622;50.840;4.948;2023-04-01T23:44:49;9.20;99.90
11136;DHT22;5622;50.840;4.948;2023-04-01T23:47:21;9.20;99.90
11136;DHT22;5622;50.840;4.948;2023-04-01T23:49:52;9.20;99.90
11136;DHT22;5622;50.840;4.948;2023-04-01T23:52:22;9.30;99.90
11136;DHT22;5622;50.840;4.948;2023-04-01T23:54:52;9.20;99.90
11136;DHT22;5622;50.840;4.948;2023-04-01T23:57:25;9.20;99.90
